Time;durP1;ratioP1;P1;durP2;ratioP2;P2;SDS_P1;SDS_P2;PMS_P1;PMS_P2;Temp;Humidity;BMP_temperature;BMP_pressure;BME280_temperature;BME280_humidity;BME280_pressure;Samples;Min_cycle;Max_cycle;Signal;HPM_P1;HPM_P2
2023/07/28 00:01:01;;;;;;;;;1.00;1.00;;;;;20.83;70.45;100351.78;5112108;27;45439;-73
2023/07/28 00:03:27;;;;;;;;;3.67;2.67;;;;;20.84;70.69;100356.25;5112858;27;44961;-71
2023/07/28 00:05:52;;;;;;;;;5.00;1.00;;;;;20.84;70.66;100361.69;5114448;27;45381;-69
2023/07/28 00:08:18;;;;;;;;;1.00;1.00;;;;;20.53;70.34;100317.06;5114710;27;45189;-78
2023/07/28 00:10:43;;;;;;;;;3.00;2.00;;;;;20.77;70.44;100356.41;5096687;27;45029;-66
2023/07/28 00:13:09;;;;;;;;;2.33;1.00;;;;;20.88;70.31;100368.84;5108890;27;45273;-74
2023/07/28 00:15:34;;;;;;;;;2.00;2.00;;;;;20.88;70.29;100371.56;5114174;27;45109;-70
2023/07/28 00:18:01;;;;;;;;;1.00;1.00;;;;;20.87;70.44;100369.75;5106359;27;45249;-74
2023/07/28 00:20:27;;;;;;;;;2.67;1.33;;;;;20.80;70.25;100360.88;5107208;27;45308;-72
2023/07/28 00:22:53;;;;;;;;;2.00;1.00;;;;;20.77;70.43;100352.78;5114720;27;45098;-74
2023/07/28 00:25:18;;;;;;;;;1.00;1.00;;;;;20.78;70.22;100358.19;5096072;27;47097;-68
2023/07/28 00:27:43;;;;;;;;;3.67;2.00;;;;;20.66;70.73;100334.03;5103925;27;45297;-68
2023/07/28 00:30:10;;;;;;;;;1.00;1.00;;;;;20.77;70.52;100342.84;5115055;27;45723;-70
2023/07/28 00:32:35;;;;;;;;;1.67;0.00;;;;;20.83;70.42;100349.06;5113580;27;44969;-72
2023/07/28 00:35:01;;;;;;;;;1.00;1.00;;;;;20.88;70.58;100358.00;5097552;27;45604;-67
2023/07/28 00:37:27;;;;;;;;;1.67;1.67;;;;;20.83;70.46;100349.06;5105314;27;45444;-66
2023/07/28 00:39:52;;;;;;;;;1.33;1.33;;;;;20.79;70.80;100335.53;5101148;27;45538;-66
2023/07/28 00:42:17;;;;;;;;;4.67;1.00;;;;;20.89;70.51;100354.34;5085922;27;49389;-69
2023/07/28 00:44:43;;;;;;;;;1.00;1.00;;;;;20.88;70.52;100353.44;5112890;27;45445;-68
2023/07/28 00:47:08;;;;;;;;;1.00;1.00;;;;;20.78;70.78;100343.72;5118160;27;44942;-72
2023/07/28 00:49:34;;;;;;;;;2.00;2.00;;;;;20.87;70.82;100359.81;5114657;27;45021;-68
2023/07/28 00:51:59;;;;;;;;;3.33;2.00;;;;;20.90;70.60;100356.13;5114749;27;45110;-68
2023/07/28 00:54:25;;;;;;;;;3.67;1.00;;;;;20.91;70.64;100361.53;5114406;27;45717;-68
2023/07/28 00:56:51;;;;;;;;;2.00;2.00;;;;;20.81;70.55;100340.94;5114299;27;45987;-68
2023/07/28 00:59:16;;;;;;;;;3.00;1.67;;;;;20.79;70.55;100324.69;5114617;27;45157;-65
2023/07/28 01:01:42;;;;;;;;;2.67;1.00;;;;;20.89;70.45;100347.09;5114152;27;45038;-69
2023/07/28 01:04:07;;;;;;;;;3.00;3.00;;;;;20.94;70.74;100357.84;5124906;27;45082;-67
2023/07/28 01:07:00;;;;;;;;;1.67;1.67;;;;;20.88;70.69;100352.56;5120432;27;45173;-66
2023/07/28 01:09:33;;;;;;;;;2.00;1.00;;;;;20.91;70.60;100366.94;5126483;27;45917;-69
2023/07/28 01:11:59;;;;;;;;;1.00;1.00;;;;;20.88;70.78;100352.56;5114353;27;45002;-69
2023/07/28 01:14:25;;;;;;;;;1.00;1.00;;;;;20.90;70.95;100359.72;5113556;27;46746;-67
2023/07/28 01:16:52;;;;;;;;;0.67;0.00;;;;;20.89;70.77;100354.34;5113608;27;44911;-69
2023/07/28 01:19:20;;;;;;;;;0.33;0.33;;;;;20.92;70.69;100359.69;5114194;27;44960;-70
2023/07/28 01:21:53;;;;;;;;;2.00;2.00;;;;;20.76;70.96;100335.59;5113643;27;45369;-70
2023/07/28 01:25:01;;;;;;;;;1.33;0.67;;;;;20.92;71.01;100360.59;5113824;27;45390;-68
2023/07/28 01:27:28;;;;;;;;;4.67;2.67;;;;;20.58;70.89;100308.84;5100269;27;45102;-68
2023/07/28 01:29:54;;;;;;;;;1.00;1.00;;;;;20.91;70.90;100366.06;5116533;27;45274;-70
2023/07/28 01:32:19;;;;;;;;;1.00;1.00;;;;;20.93;70.82;100362.38;5125025;27;44944;-70
2023/07/28 01:34:45;;;;;;;;;3.00;1.00;;;;;20.91;70.95;100356.09;5125883;27;45581;-71
2023/07/28 01:37:10;;;;;;;;;1.33;1.00;;;;;20.83;71.10;100341.78;5112513;27;48596;-68
2023/07/28 01:39:36;;;;;;;;;2.33;2.33;;;;;20.94;71.13;100360.56;5113741;27;46050;-71
2023/07/28 01:42:01;;;;;;;;;0.00;0.00;;;;;20.89;70.86;100346.22;5125460;27;44987;-66
2023/07/28 01:44:26;;;;;;;;;0.67;0.67;;;;;20.80;70.83;100331.00;5113209;27;45854;-66
2023/07/28 01:46:51;;;;;;;;;3.67;1.00;;;;;20.80;70.96;100339.13;5113121;27;45037;-66
2023/07/28 01:49:17;;;;;;;;;1.33;1.33;;;;;20.90;71.04;100358.84;5113154;27;44953;-67
2023/07/28 01:51:42;;;;;;;;;0.67;0.67;;;;;20.87;71.06;100338.09;5103078;27;44964;-65
2023/07/28 01:54:07;;;;;;;;;4.00;1.00;;;;;20.91;71.33;100339.78;5131736;27;44995;-71
2023/07/28 01:56:33;;;;;;;;;3.33;1.00;;;;;20.84;71.23;100323.66;5113101;27;44972;-66
2023/07/28 01:58:58;;;;;;;;;1.00;1.00;;;;;20.87;70.74;100337.19;5111082;27;44865;-71
2023/07/28 02:01:23;;;;;;;;;0.00;0.00;;;;;20.94;71.08;100344.28;5108768;27;45183;-71
2023/07/28 02:03:49;;;;;;;;;1.33;1.00;;;;;20.95;71.06;100338.81;5095203;27;46246;-66
2023/07/28 02:06:14;;;;;;;;;1.00;1.00;;;;;20.94;71.13;100337.00;5112551;27;45001;-67
2023/07/28 02:08:39;;;;;;;;;2.00;2.00;;;;;20.97;70.87;100346.94;5114944;27;46133;-66
2023/07/28 02:11:05;;;;;;;;;1.67;1.67;;;;;20.93;70.80;100340.66;5100383;27;45305;-66
2023/07/28 02:13:30;;;;;;;;;2.00;0.67;;;;;20.87;70.80;100326.31;5090811;27;48894;-70
2023/07/28 02:15:55;;;;;;;;;1.00;1.00;;;;;20.98;70.66;100340.53;5103827;27;45124;-67
2023/07/28 02:18:21;;;;;;;;;1.00;1.00;;;;;20.95;70.89;100338.81;5090438;27;45314;-66
2023/07/28 02:20:49;;;;;;;;;1.67;1.00;;;;;20.93;70.80;100334.34;5099598;27;45524;-68
2023/07/28 02:23:15;;;;;;;;;3.67;1.00;;;;;21.00;70.75;100338.69;5109845;27;45355;-68
2023/07/28 02:25:40;;;;;;;;;1.00;1.00;;;;;20.94;70.84;100333.41;5108944;27;45666;-68
2023/07/28 02:28:08;;;;;;;;;1.67;1.67;;;;;20.65;70.59;100272.50;5110301;27;45062;-66
2023/07/28 02:30:33;;;;;;;;;1.00;1.00;;;;;20.84;70.63;100308.28;5099647;27;45397;-67
2023/07/28 02:32:59;;;;;;;;;2.00;1.00;;;;;20.98;70.46;100337.84;5101930;27;45598;-69
2023/07/28 02:35:24;;;;;;;;;0.00;0.00;;;;;20.97;70.50;100338.78;5105248;27;51613;-66
2023/07/28 02:37:49;;;;;;;;;1.00;1.00;;;;;20.88;70.73;100325.41;5095547;27;45234;-68
2023/07/28 02:40:15;;;;;;;;;3.00;1.00;;;;;20.94;70.70;100330.69;5111667;27;45321;-66
2023/07/28 02:42:40;;;;;;;;;1.00;1.00;;;;;20.93;70.79;100329.78;5105231;27;45722;-66
2023/07/28 02:45:06;;;;;;;;;1.67;1.67;;;;;20.83;70.66;100302.91;5112159;27;45014;-70
2023/07/28 02:47:31;;;;;;;;;2.33;1.00;;;;;20.97;70.90;100336.94;5121559;27;45248;-68
2023/07/28 02:49:57;;;;;;;;;0.67;0.67;;;;;20.68;70.85;100286.03;5116230;27;45460;-66
2023/07/28 02:52:22;;;;;;;;;0.67;0.67;;;;;20.96;70.92;100329.72;5115614;27;45164;-65
2023/07/28 02:54:48;;;;;;;;;1.67;1.00;;;;;20.92;70.81;100325.31;5091627;27;45507;-68
2023/07/28 02:57:13;;;;;;;;;1.00;1.00;;;;;20.94;70.61;100330.69;5113222;27;44994;-66
2023/07/28 02:59:38;;;;;;;;;2.00;1.00;;;;;20.93;70.84;100337.06;5113770;27;44963;-67
2023/07/28 03:02:04;;;;;;;;;0.67;0.67;;;;;20.97;70.72;100338.78;5109289;27;48122;-66
2023/07/28 03:04:29;;;;;;;;;1.00;1.00;;;;;20.96;70.88;100336.97;5114427;27;45096;-68
2023/07/28 03:06:56;;;;;;;;;3.00;0.00;;;;;20.98;70.69;100337.84;5118291;27;45611;-66
2023/07/28 03:09:21;;;;;;;;;1.00;1.00;;;;;20.97;70.81;100341.50;5110920;27;45543;-66
2023/07/28 03:11:47;;;;;;;;;1.00;1.00;;;;;20.91;70.91;100328.06;5113577;27;45695;-65
2023/07/28 03:14:12;;;;;;;;;0.00;0.00;;;;;20.94;71.18;100341.56;5109735;27;45408;-66
2023/07/28 03:16:38;;;;;;;;;0.00;0.00;;;;;20.93;71.10;100342.47;5106355;27;45326;-66
2023/07/28 03:19:03;;;;;;;;;0.00;0.00;;;;;20.95;71.13;100341.53;5110713;27;45471;-67
2023/07/28 03:21:32;;;;;;;;;1.00;1.00;;;;;20.96;71.31;100343.28;5112397;27;46203;-66
2023/07/28 03:23:57;;;;;;;;;2.00;2.00;;;;;20.97;71.28;100341.50;5107273;27;45212;-66
2023/07/28 03:26:22;;;;;;;;;1.00;1.00;;;;;20.97;70.84;100345.09;5115177;27;45001;-70
2023/07/28 03:28:48;;;;;;;;;2.00;2.00;;;;;21.01;71.08;100345.03;5111284;27;53288;-66
2023/07/28 03:31:13;;;;;;;;;1.00;1.00;;;;;21.03;71.00;100346.75;5110620;27;45355;-65
2023/07/28 03:33:38;;;;;;;;;0.67;0.67;;;;;20.99;71.11;100345.94;5092521;27;45078;-67
2023/07/28 03:36:04;;;;;;;;;2.00;2.00;;;;;21.01;71.23;100354.06;5110018;27;45275;-68
2023/07/28 03:38:29;;;;;;;;;2.33;0.00;;;;;20.98;71.11;100343.25;5091366;27;45388;-66
2023/07/28 03:40:55;;;;;;;;;3.33;1.00;;;;;21.03;71.30;100343.16;5108818;27;45621;-66
2023/07/28 03:43:21;;;;;;;;;1.00;1.00;;;;;21.05;71.21;100339.50;5109221;27;44975;-66
2023/07/28 03:45:46;;;;;;;;;0.67;0.67;;;;;20.87;71.03;100300.09;5109420;27;45473;-66
2023/07/28 03:48:12;;;;;;;;;2.33;1.00;;;;;20.91;70.97;100309.03;5109774;27;45435;-66
2023/07/28 03:50:37;;;;;;;;;1.67;1.00;;;;;21.08;71.46;100336.69;5088202;27;45937;-66
2023/07/28 03:53:02;;;;;;;;;2.00;2.00;;;;;21.04;71.06;100340.41;5112520;27;44919;-66
2023/07/28 03:55:28;;;;;;;;;1.00;1.00;;;;;20.95;71.27;100325.25;5093021;27;45456;-69
2023/07/28 03:57:53;;;;;;;;;0.00;0.00;;;;;20.93;71.55;100312.59;5110175;27;45233;-69
2023/07/28 04:00:19;;;;;;;;;1.00;1.00;;;;;20.88;71.42;100304.56;5116080;27;45730;-69
2023/07/28 04:02:44;;;;;;;;;0.00;0.00;;;;;21.06;71.75;100327.69;5114288;27;44968;-70
2023/07/28 04:05:09;;;;;;;;;0.67;0.67;;;;;20.84;71.89;100281.13;5128292;27;53005;-65
2023/07/28 04:07:35;;;;;;;;;0.00;0.00;;;;;21.12;72.19;100324.81;5108127;27;45380;-66
2023/07/28 04:10:00;;;;;;;;;1.00;1.00;;;;;21.11;72.52;100328.47;5114431;27;45400;-68
2023/07/28 04:12:25;;;;;;;;;2.00;2.00;;;;;21.10;72.76;100320.34;5108621;27;45264;-68
2023/07/28 04:14:51;;;;;;;;;1.00;1.00;;;;;21.07;73.13;100325.84;5085978;27;45396;-69
2023/07/28 04:17:16;;;;;;;;;2.00;1.00;;;;;21.06;73.39;100324.09;5114722;27;45262;-66
2023/07/28 04:19:41;;;;;;;;;1.00;1.00;;;;;20.99;73.57;100318.78;5110285;27;45510;-67
2023/07/28 04:22:07;;;;;;;;;0.00;0.00;;;;;20.97;74.21;100320.66;5116600;27;45025;-67
2023/07/28 04:24:32;;;;;;;;;0.00;0.00;;;;;20.77;74.65;100288.53;5121734;27;45305;-69
2023/07/28 04:26:58;;;;;;;;;5.00;2.00;;;;;21.01;74.87;100328.72;5117934;27;45200;-66
2023/07/28 04:29:23;;;;;;;;;2.00;0.00;;;;;21.01;74.94;100326.03;5116103;27;46470;-74
2023/07/28 04:31:49;;;;;;;;;0.67;0.67;;;;;21.01;74.97;100326.03;5114747;27;44850;-67
2023/07/28 04:34:14;;;;;;;;;0.33;0.33;;;;;20.90;74.93;100319.00;5115809;27;45169;-69
2023/07/28 04:36:39;;;;;;;;;0.00;0.00;;;;;20.92;75.05;100335.25;5099393;27;45534;-67
2023/07/28 04:39:05;;;;;;;;;1.00;1.00;;;;;20.89;75.44;100338.06;5103493;27;45605;-73
2023/07/28 04:41:30;;;;;;;;;0.00;0.00;;;;;20.78;75.59;100322.88;5101855;27;45630;-70
2023/07/28 04:43:56;;;;;;;;;0.00;0.00;;;;;20.79;76.08;100330.13;5121798;27;45038;-66
2023/07/28 04:46:22;;;;;;;;;2.67;1.00;;;;;20.77;76.25;100326.53;5107228;27;45203;-68
2023/07/28 04:48:47;;;;;;;;;2.67;2.67;;;;;20.79;76.06;100338.25;5098749;27;46434;-69
2023/07/28 04:51:12;;;;;;;;;0.00;0.00;;;;;20.74;76.45;100328.41;5099353;27;45364;-70
2023/07/28 04:53:38;;;;;;;;;0.00;0.00;;;;;20.74;76.84;100329.31;5123845;27;46291;-67
2023/07/28 04:56:03;;;;;;;;;0.33;0.33;;;;;20.79;76.67;100340.97;5131359;27;44938;-68
2023/07/28 04:58:29;;;;;;;;;0.00;0.00;;;;;20.80;77.08;100345.50;5106599;27;45263;-68
2023/07/28 05:00:54;;;;;;;;;0.00;0.00;;;;;20.70;77.06;100327.59;5114706;27;45088;-70
2023/07/28 05:03:20;;;;;;;;;0.00;0.00;;;;;20.81;76.96;100340.94;5091631;27;45858;-70
2023/07/28 05:05:45;;;;;;;;;0.00;0.00;;;;;20.84;76.79;100329.09;5110756;27;45220;-74
2023/07/28 05:08:11;;;;;;;;;0.67;0.00;;;;;20.85;76.36;100336.34;5118419;27;45683;-73
2023/07/28 05:10:36;;;;;;;;;0.00;0.00;;;;;20.86;76.37;100338.13;5110484;27;45634;-74
2023/07/28 05:13:04;;;;;;;;;1.00;1.00;;;;;20.84;76.03;100338.16;5101960;27;45494;-70
2023/07/28 05:15:29;;;;;;;;;1.00;1.00;;;;;20.79;76.22;100334.66;5109240;27;44955;-69
2023/07/28 05:17:55;;;;;;;;;0.33;0.33;;;;;20.84;76.69;100345.38;5117118;27;46608;-68
2023/07/28 05:20:20;;;;;;;;;0.00;0.00;;;;;20.75;76.37;100324.78;5110502;27;45392;-70
2023/07/28 05:22:46;;;;;;;;;1.00;1.00;;;;;20.74;76.43;100325.69;5104375;27;45376;-73
2023/07/28 05:25:11;;;;;;;;;0.00;0.00;;;;;20.78;76.70;100322.00;5108549;27;45373;-73
2023/07/28 05:27:36;;;;;;;;;0.00;0.00;;;;;20.86;76.28;100341.72;5105652;27;45506;-67
2023/07/28 05:30:02;;;;;;;;;0.00;0.00;;;;;20.66;75.91;100303.28;5102464;27;45281;-70
2023/07/28 05:32:27;;;;;;;;;0.00;0.00;;;;;20.74;75.85;100320.25;5104951;27;45473;-72
2023/07/28 05:34:53;;;;;;;;;1.00;1.00;;;;;20.74;76.27;100326.63;5118618;27;45288;-75
2023/07/28 05:37:18;;;;;;;;;0.00;0.00;;;;;20.79;76.45;100337.38;5104601;27;45292;-78
2023/07/28 05:39:44;;;;;;;;;1.00;1.00;;;;;20.85;76.31;100344.47;5115375;27;45130;-78
2023/07/28 05:42:09;;;;;;;;;0.00;0.00;;;;;20.80;76.62;100344.56;5117229;27;45160;-75
2023/07/28 05:44:34;;;;;;;;;0.00;0.00;;;;;20.73;76.31;100319.38;5118251;27;45308;-76
2023/07/28 05:47:00;;;;;;;;;0.00;0.00;;;;;20.79;76.49;100335.53;5108912;27;45733;-70
2023/07/28 05:49:25;;;;;;;;;1.00;1.00;;;;;20.84;76.65;100339.97;5115224;27;45554;-72
2023/07/28 05:51:50;;;;;;;;;1.67;0.00;;;;;20.81;76.32;100330.09;5104248;27;45294;-68
2023/07/28 05:54:16;;;;;;;;;0.00;0.00;;;;;20.85;76.35;100337.22;5105847;27;45498;-69
2023/07/28 05:56:42;;;;;;;;;2.00;0.00;;;;;20.85;76.17;100336.34;5109452;27;45279;-69
2023/07/28 05:59:07;;;;;;;;;1.00;1.00;;;;;20.81;76.19;100321.94;5110476;27;45639;-66
2023/07/28 06:01:33;;;;;;;;;2.00;0.00;;;;;20.93;76.26;100345.19;5113092;27;46520;-67
2023/07/28 06:03:59;;;;;;;;;0.00;0.00;;;;;20.90;76.56;100340.72;5118435;27;45334;-67
2023/07/28 06:06:26;;;;;;;;;0.00;0.00;;;;;20.92;76.26;100352.47;5094307;27;46791;-67
2023/07/28 06:08:52;;;;;;;;;0.33;0.33;;;;;20.95;75.95;100354.19;5111368;27;45614;-66
2023/07/28 06:11:17;;;;;;;;;1.00;1.00;;;;;20.98;75.95;100356.84;5113905;27;45000;-66
2023/07/28 06:13:43;;;;;;;;;2.00;2.00;;;;;21.00;76.24;100349.53;5103892;27;45503;-68
2023/07/28 06:16:09;;;;;;;;;3.00;3.00;;;;;21.02;76.23;100349.50;5107917;27;45441;-66
2023/07/28 06:18:34;;;;;;;;;1.33;1.00;;;;;21.01;75.80;100348.63;5103352;27;45277;-69
2023/07/28 06:20:59;;;;;;;;;4.00;3.00;;;;;21.06;76.16;100359.41;5103041;27;45413;-66
2023/07/28 06:23:25;;;;;;;;;0.00;0.00;;;;;21.08;75.99;100355.69;5115384;27;45564;-66
2023/07/28 06:25:50;;;;;;;;;0.00;0.00;;;;;21.10;76.06;100364.72;5104241;27;45434;-67
2023/07/28 06:28:16;;;;;;;;;1.00;0.00;;;;;21.05;76.00;100344.00;5117123;27;46002;-66
2023/07/28 06:30:41;;;;;;;;;0.67;0.00;;;;;21.15;75.80;100361.88;5104843;27;45943;-67
2023/07/28 06:33:08;;;;;;;;;1.00;1.00;;;;;21.16;75.58;100369.09;5090286;27;45305;-68
2023/07/28 06:35:34;;;;;;;;;1.00;1.00;;;;;21.16;75.69;100371.81;5102783;27;45365;-68
2023/07/28 06:38:00;;;;;;;;;1.00;1.00;;;;;21.16;75.65;100366.38;5123902;27;45387;-67
2023/07/28 06:40:25;;;;;;;;;2.33;1.00;;;;;21.18;75.63;100372.69;5103096;27;45486;-71
2023/07/28 06:42:51;;;;;;;;;2.00;2.00;;;;;20.97;75.73;100336.94;5119488;27;45391;-67
2023/07/28 06:45:16;;;;;;;;;4.67;1.33;;;;;21.17;75.80;100366.34;5113887;27;45530;-66
2023/07/28 06:47:42;;;;;;;;;1.00;1.00;;;;;21.22;75.65;100378.94;5118448;27;45114;-69
2023/07/28 06:50:09;;;;;;;;;7.00;1.67;;;;;21.21;75.59;100372.59;5085679;27;45310;-74
2023/07/28 06:52:34;;;;;;;;;4.00;2.00;;;;;21.16;75.85;100371.81;5100933;27;45364;-68
2023/07/28 06:55:00;;;;;;;;;1.00;1.00;;;;;21.12;75.28;100371.00;5114878;27;45718;-68
2023/07/28 06:57:25;;;;;;;;;3.00;2.00;;;;;21.09;75.86;100370.19;5098360;27;45537;-69
2023/07/28 06:59:50;;;;;;;;;1.00;1.00;;;;;21.15;75.63;100380.88;5115463;27;46888;-70
2023/07/28 07:02:16;;;;;;;;;3.67;2.00;;;;;21.06;75.78;100363.00;5114008;27;44952;-65
2023/07/28 07:04:43;;;;;;;;;2.00;2.00;;;;;21.05;75.83;100363.94;5112791;27;45340;-69
2023/07/28 07:07:09;;;;;;;;;4.67;4.67;;;;;21.11;75.84;100371.94;5095595;27;45548;-68
2023/07/28 07:09:34;;;;;;;;;3.67;2.00;;;;;21.05;75.50;100355.78;5093903;27;45467;-67
2023/07/28 07:12:00;;;;;;;;;1.00;1.00;;;;;21.06;75.72;100368.44;5090391;27;45489;-70
2023/07/28 07:14:25;;;;;;;;;2.00;2.00;;;;;21.20;75.86;100395.28;5112169;27;45505;-67
2023/07/28 07:16:51;;;;;;;;;1.00;1.00;;;;;21.17;76.00;100385.38;5114332;27;45147;-70
2023/07/28 07:19:16;;;;;;;;;1.00;1.00;;;;;21.20;76.27;100395.28;5120818;27;46156;-69
2023/07/28 07:21:42;;;;;;;;;1.00;1.00;;;;;21.20;76.69;100397.09;5121449;27;45200;-68
2023/07/28 07:24:07;;;;;;;;;4.00;0.00;;;;;21.15;76.68;100397.19;5115819;27;45360;-67
2023/07/28 07:26:33;;;;;;;;;1.67;1.67;;;;;21.19;77.30;100409.78;5123238;27;45190;-71
2023/07/28 07:28:58;;;;;;;;;1.00;1.00;;;;;21.18;77.12;100408.00;5129389;27;45314;-66
2023/07/28 07:31:23;;;;;;;;;1.00;1.00;;;;;21.07;77.94;100399.19;5115286;27;45151;-66
2023/07/28 07:33:49;;;;;;;;;3.00;1.00;;;;;21.14;78.35;100420.75;5121352;27;45555;-70
2023/07/28 07:36:16;;;;;;;;;1.67;1.00;;;;;21.02;78.82;100404.75;5124332;27;45231;-71
2023/07/28 07:38:45;;;;;;;;;3.00;1.00;;;;;20.92;79.73;100403.13;5122356;27;45300;-68
2023/07/28 07:41:11;;;;;;;;;3.33;2.33;;;;;20.95;80.69;100420.28;5111247;27;45145;-66
2023/07/28 07:43:36;;;;;;;;;2.00;2.00;;;;;20.90;80.91;100408.59;5121481;27;46804;-69
2023/07/28 07:46:01;;;;;;;;;2.00;1.00;;;;;20.96;80.77;100430.22;5118476;27;44940;-72
2023/07/28 07:48:27;;;;;;;;;1.67;1.67;;;;;20.88;81.27;100417.72;5127409;27;45344;-67
2023/07/28 07:50:52;;;;;;;;;3.00;0.00;;;;;20.92;81.52;100419.44;5116401;27;45416;-67
2023/07/28 07:53:18;;;;;;;;;1.67;1.67;;;;;20.84;81.48;100416.00;5119046;27;45871;-67
2023/07/28 07:55:44;;;;;;;;;5.00;3.67;;;;;20.79;81.45;100411.56;5120504;27;45244;-69
2023/07/28 07:58:09;;;;;;;;;1.00;1.00;;;;;20.86;81.92;100416.88;5118125;27;45530;-69
2023/07/28 08:00:37;;;;;;;;;1.00;1.00;;;;;20.84;82.07;100414.19;5117869;27;45225;-67
2023/07/28 08:03:04;;;;;;;;;1.00;0.00;;;;;20.94;82.22;100417.59;5114722;27;45333;-66
2023/07/28 08:05:30;;;;;;;;;3.67;2.00;;;;;20.99;82.36;100429.25;5096992;27;45152;-67
2023/07/28 08:07:55;;;;;;;;;1.67;1.00;;;;;20.90;81.93;100405.00;5118161;27;45407;-68
2023/07/28 08:10:21;;;;;;;;;3.00;0.67;;;;;20.98;81.11;100420.19;5109587;27;44941;-67
2023/07/28 08:12:47;;;;;;;;;2.67;2.00;;;;;20.98;81.77;100424.75;5124179;27;45634;-71
2023/07/28 08:15:13;;;;;;;;;1.67;0.00;;;;;21.07;81.36;100431.78;5119456;27;45520;-71
2023/07/28 08:17:39;;;;;;;;;1.00;1.00;;;;;21.06;80.73;100433.63;5116545;27;45184;-68
2023/07/28 08:20:07;;;;;;;;;2.00;2.00;;;;;20.97;81.06;100413.00;5119123;27;45122;-71
2023/07/28 08:22:33;;;;;;;;;1.00;0.00;;;;;21.08;80.65;100433.59;5115186;27;45833;-64
2023/07/28 08:24:58;;;;;;;;;1.00;1.00;;;;;21.02;80.93;100423.75;5124009;27;45074;-69
2023/07/28 08:27:24;;;;;;;;;1.67;1.00;;;;;21.13;81.68;100432.53;5116944;27;45169;-69
2023/07/28 08:29:49;;;;;;;;;2.33;1.00;;;;;21.16;81.20;100431.59;5125521;27;45219;-70
2023/07/28 08:32:15;;;;;;;;;1.00;1.00;;;;;21.14;81.34;100425.31;5122386;27;45887;-70
2023/07/28 08:34:40;;;;;;;;;2.33;1.33;;;;;21.22;81.09;100430.53;5122742;27;45191;-72
2023/07/28 08:37:05;;;;;;;;;3.67;0.67;;;;;21.30;81.12;100432.19;5131117;27;45337;-68
2023/07/28 08:39:33;;;;;;;;;0.00;0.00;;;;;21.32;80.20;100434.88;5115370;27;45086;-68
2023/07/28 08:42:00;;;;;;;;;0.00;0.00;;;;;21.37;79.97;100440.19;5114837;27;45216;-67
2023/07/28 08:44:26;;;;;;;;;1.00;1.00;;;;;21.39;80.08;100435.63;5117346;27;46271;-66
2023/07/28 08:46:52;;;;;;;;;2.00;0.00;;;;;21.28;79.45;100422.25;5114069;27;45942;-69
2023/07/28 08:49:17;;;;;;;;;1.67;1.67;;;;;21.48;79.62;100446.28;5121303;27;45446;-70
2023/07/28 08:51:48;;;;;;;;;2.00;2.00;;;;;21.47;78.93;100441.78;5100663;27;46357;-69
2023/07/28 08:54:13;;;;;;;;;0.00;0.00;;;;;21.51;78.64;100447.13;5123718;27;45404;-71
2023/07/28 08:56:38;;;;;;;;;0.00;0.00;;;;;21.48;78.22;100441.78;5114931;27;44974;-69
2023/07/28 08:59:04;;;;;;;;;2.00;1.00;;;;;21.56;78.95;100446.13;5114231;27;44908;-67
2023/07/28 09:01:30;;;;;;;;;2.67;2.00;;;;;21.62;78.89;100443.25;5113013;27;45490;-70
2023/07/28 09:03:55;;;;;;;;;1.00;1.00;;;;;21.68;78.75;100446.72;5125275;27;44897;-67
2023/07/28 09:06:29;;;;;;;;;1.00;1.00;;;;;21.74;78.68;100442.94;5112574;27;44980;-70
2023/07/28 09:08:56;;;;;;;;;4.33;1.67;;;;;21.86;78.64;100450.81;5112453;27;45110;-68
2023/07/28 09:11:26;;;;;;;;;2.00;2.00;;;;;21.95;78.62;100455.13;5102616;27;46701;-67
2023/07/28 09:13:53;;;;;;;;;3.00;1.33;;;;;21.99;77.72;100450.50;5094121;27;45000;-70
2023/07/28 09:16:20;;;;;;;;;4.00;3.67;;;;;22.02;77.88;100442.25;5115292;27;45326;-68
2023/07/28 09:18:46;;;;;;;;;5.33;2.00;;;;;22.09;77.49;100443.88;5112211;27;45110;-66
2023/07/28 09:21:20;;;;;;;;;3.33;3.00;;;;;22.01;77.22;100429.56;5118306;27;45118;-66
2023/07/28 09:23:49;;;;;;;;;3.00;3.00;;;;;22.17;77.16;100455.44;5115113;27;45740;-71
2023/07/28 09:26:15;;;;;;;;;3.00;3.00;;;;;22.16;76.87;100444.59;5114355;27;46373;-70
2023/07/28 09:28:41;;;;;;;;;14.67;14.00;;;;;22.14;77.05;100425.63;5096371;27;45316;-70
2023/07/28 09:31:07;;;;;;;;;2.33;2.33;;;;;22.27;76.32;100447.94;5112053;27;45742;-66
2023/07/28 09:33:35;;;;;;;;;2.33;1.33;;;;;22.26;75.88;100452.50;5114113;27;45120;-70
2023/07/28 09:36:11;;;;;;;;;1.33;1.33;;;;;22.25;76.09;100449.81;5112481;27;45335;-68
2023/07/28 09:38:41;;;;;;;;;2.67;2.00;;;;;22.21;76.13;100440.84;5118994;27;45120;-70
2023/07/28 09:41:10;;;;;;;;;1.33;1.33;;;;;22.20;75.95;100447.19;5109899;27;46772;-68
2023/07/28 09:43:37;;;;;;;;;1.00;1.00;;;;;22.22;76.15;100448.09;5123391;27;45323;-67
2023/07/28 09:46:08;;;;;;;;;6.00;3.00;;;;;22.26;76.44;100447.06;5106584;27;45382;-68
2023/07/28 09:48:34;;;;;;;;;6.00;5.00;;;;;22.33;77.17;100441.47;5118120;27;45227;-72
2023/07/28 09:51:04;;;;;;;;;3.67;2.67;;;;;22.40;76.79;100457.59;5129810;27;46251;-70
2023/07/28 09:53:33;;;;;;;;;2.00;2.00;;;;;22.47;76.57;100449.25;5115264;27;45235;-68
2023/07/28 09:55:58;;;;;;;;;2.67;2.67;;;;;22.44;76.20;100421.19;5099095;27;45317;-71
2023/07/28 09:58:25;;;;;;;;;1.00;1.00;;;;;22.55;74.99;100434.47;5116535;27;45202;-63
2023/07/28 10:00:51;;;;;;;;;2.00;1.67;;;;;22.54;75.13;100415.50;5114743;27;45776;-61
2023/07/28 10:03:16;;;;;;;;;3.33;1.00;;;;;22.45;74.66;100398.50;5097196;27;45662;-62
2023/07/28 10:05:42;;;;;;;;;2.00;2.00;;;;;22.63;75.36;100434.28;5096081;27;45280;-63
2023/07/28 10:08:08;;;;;;;;;9.33;8.67;;;;;22.62;74.91;100433.41;5095699;27;45346;-62
2023/07/28 10:10:34;;;;;;;;;2.00;2.00;;;;;22.61;74.47;100430.72;5110600;27;46356;-61
2023/07/28 10:13:00;;;;;;;;;3.00;2.00;;;;;22.65;74.89;100435.13;5119781;27;44959;-62
2023/07/28 10:15:31;;;;;;;;;1.33;1.33;;;;;22.63;74.62;100428.84;5119264;27;45260;-63
2023/07/28 10:17:58;;;;;;;;;4.00;3.00;;;;;22.66;75.05;100426.03;5109296;27;45639;-63
2023/07/28 10:20:29;;;;;;;;;2.00;2.00;;;;;22.71;75.06;100436.78;5121935;27;45240;-60
2023/07/28 10:23:02;;;;;;;;;3.00;3.00;;;;;22.74;75.55;100414.91;5116184;27;45094;-62
2023/07/28 10:25:31;;;;;;;;;3.00;2.33;;;;;22.94;75.15;100431.56;5095987;27;45400;-62
2023/07/28 10:27:57;;;;;;;;;4.67;3.33;;;;;23.04;74.59;100423.13;5114503;27;45840;-62
2023/07/28 10:30:22;;;;;;;;;3.33;3.33;;;;;23.19;74.15;100423.53;5112541;27;47522;-63
2023/07/28 10:32:50;;;;;;;;;4.67;4.00;;;;;23.29;73.99;100417.81;5098925;27;45541;-61
2023/07/28 10:35:21;;;;;;;;;3.67;1.33;;;;;23.45;72.78;100419.13;5097254;27;45371;-62
2023/07/28 10:37:47;;;;;;;;;2.00;2.00;;;;;23.62;72.62;100421.28;5097606;27;45392;-60
2023/07/28 10:40:23;;;;;;;;;3.00;2.00;;;;;23.73;71.42;100419.09;5093687;27;46111;-63
2023/07/28 10:42:50;;;;;;;;;1.67;1.67;;;;;23.81;70.90;100427.03;5093506;27;45457;-61
2023/07/28 10:45:15;;;;;;;;;3.00;2.00;;;;;23.85;70.45;100403.28;5079360;27;45455;-62
2023/07/28 10:47:41;;;;;;;;;2.33;1.00;;;;;23.88;70.04;100406.81;5098096;27;45427;-61
2023/07/28 10:50:11;;;;;;;;;4.00;1.00;;;;;23.86;69.89;100408.69;5105229;27;46764;-62
2023/07/28 10:52:43;;;;;;;;;3.67;2.00;;;;;23.79;70.13;100396.19;5097397;27;45611;-62
2023/07/28 10:55:20;;;;;;;;;3.00;2.00;;;;;23.84;70.59;100404.22;5082335;27;45407;-61
2023/07/28 10:57:46;;;;;;;;;2.00;2.00;;;;;23.89;70.48;100400.41;5075270;27;45659;-62
2023/07/28 11:00:14;;;;;;;;;3.67;3.67;;;;;23.94;69.88;100399.34;5094961;27;46387;-60
2023/07/28 11:02:47;;;;;;;;;2.33;2.33;;;;;24.00;69.96;100401.88;5098130;27;45535;-60
2023/07/28 11:05:19;;;;;;;;;6.00;6.00;;;;;23.94;70.16;100385.72;5104746;27;44890;-61
2023/07/28 11:07:45;;;;;;;;;5.33;5.33;;;;;24.01;69.46;100398.22;5105442;27;45717;-62
2023/07/28 11:10:12;;;;;;;;;2.00;2.00;;;;;23.90;69.57;100398.56;5107634;27;45565;-62
2023/07/28 11:12:43;;;;;;;;;5.00;4.00;;;;;23.85;70.53;100400.56;5106674;27;45597;-62
2023/07/28 11:15:11;;;;;;;;;2.00;2.00;;;;;23.81;70.84;100398.84;5104798;27;45390;-62
2023/07/28 11:17:38;;;;;;;;;5.00;4.00;;;;;23.74;71.80;100404.53;5104898;27;45664;-63
2023/07/28 11:20:07;;;;;;;;;5.33;5.33;;;;;23.66;72.30;100403.88;5096574;27;46360;-63